createdAt,value
2019-01-29T00:00:25.984Z,32.53
2019-01-29T00:02:51.857Z,31.73
2019-01-29T00:05:17.711Z,32.47
2019-01-29T00:07:43.660Z,33.03
2019-01-29T00:10:09.532Z,32.60
2019-01-29T00:12:35.409Z,32.03
2019-01-29T00:15:01.592Z,31.50
2019-01-29T00:17:27.503Z,30.83
2019-01-29T00:19:53.367Z,30.07
2019-01-29T00:22:19.379Z,29.00
2019-01-29T00:24:45.275Z,28.70
2019-01-29T00:27:11.138Z,29.00
2019-01-29T00:29:37.041Z,30.40
2019-01-29T00:32:03.031Z,30.57
2019-01-29T00:34:28.910Z,30.03
2019-01-29T00:36:54.790Z,28.27
2019-01-29T00:39:20.719Z,28.10
2019-01-29T00:41:46.591Z,28.33
2019-01-29T00:44:12.588Z,30.90
2019-01-29T00:46:38.454Z,29.37
2019-01-29T00:49:04.372Z,27.93
2019-01-29T00:51:30.244Z,29.40
2019-01-29T00:53:56.183Z,29.27
2019-01-29T00:56:25.878Z,28.70
2019-01-29T00:58:51.809Z,29.30
2019-01-29T01:01:17.670Z,29.10
2019-01-29T01:03:43.545Z,28.97
2019-01-29T01:06:09.472Z,28.13
2019-01-29T01:08:35.353Z,28.20
2019-01-29T01:11:01.242Z,28.60
2019-01-29T01:13:27.116Z,27.93
2019-01-29T01:15:53.003Z,27.43
2019-01-29T01:18:18.856Z,30.00
2019-01-29T01:20:44.745Z,29.00
2019-01-29T01:23:10.730Z,29.00
2019-01-29T01:25:36.682Z,27.87
2019-01-29T01:28:02.561Z,27.30
2019-01-29T01:30:28.443Z,27.37
2019-01-29T01:32:54.331Z,27.33
2019-01-29T01:35:20.201Z,28.57
2019-01-29T01:37:46.207Z,28.37
2019-01-29T01:40:15.464Z,26.43
2019-01-29T01:42:41.370Z,27.48
2019-01-29T01:45:09.470Z,27.03
2019-01-29T01:47:35.341Z,27.63
2019-01-29T01:50:01.218Z,26.30
2019-01-29T01:52:27.149Z,26.80
2019-01-29T01:54:53.018Z,26.60
2019-01-29T01:57:18.967Z,27.50
2019-01-29T01:59:44.863Z,25.43
2019-01-29T02:02:10.695Z,25.63
2019-01-29T02:04:36.606Z,25.83
2019-01-29T02:07:02.593Z,25.20
2019-01-29T02:09:28.577Z,25.13
2019-01-29T02:11:54.519Z,25.33
2019-01-29T02:14:20.376Z,25.80
2019-01-29T02:16:46.260Z,26.90
2019-01-29T02:19:12.292Z,24.83
2019-01-29T02:21:38.270Z,25.47
2019-01-29T02:24:04.149Z,25.37
2019-01-29T02:26:30.046Z,23.80
2019-01-29T02:28:56.026Z,24.57
2019-01-29T02:31:21.914Z,24.50
2019-01-29T02:33:47.762Z,25.60
2019-01-29T02:36:13.688Z,24.27
2019-01-29T02:38:39.573Z,24.10
2019-01-29T02:41:05.766Z,23.30
2019-01-29T02:43:31.675Z,24.00
2019-01-29T02:45:57.538Z,23.57
2019-01-29T02:48:23.417Z,24.80
2019-01-29T02:50:49.328Z,23.60
2019-01-29T02:53:18.363Z,23.47
2019-01-29T02:55:43.021Z,24.12
2019-01-29T02:58:12.725Z,22.60
2019-01-29T03:00:38.606Z,23.42
2019-01-29T03:03:04.478Z,22.57
2019-01-29T03:05:30.351Z,21.97
2019-01-29T03:07:56.369Z,23.10
2019-01-29T03:10:24.382Z,21.15
2019-01-29T03:12:50.266Z,21.37
2019-01-29T03:15:18.971Z,21.73
2019-01-29T03:17:44.862Z,21.15
2019-01-29T03:20:12.761Z,21.50
2019-01-29T03:22:38.650Z,20.20
2019-01-29T03:25:07.338Z,20.30
2019-01-29T03:27:33.236Z,18.80
2019-01-29T03:29:59.108Z,18.23
2019-01-29T03:32:25.034Z,18.73
2019-01-29T03:34:50.914Z,18.57
2019-01-29T03:37:16.773Z,18.53
2019-01-29T03:39:42.624Z,17.97
2019-01-29T03:42:08.914Z,18.53
2019-01-29T03:44:34.817Z,18.35
2019-01-29T03:47:00.685Z,17.77
2019-01-29T03:49:26.618Z,18.03
2019-01-29T03:51:52.490Z,17.73
2019-01-29T03:54:18.380Z,17.77
2019-01-29T03:56:44.263Z,18.00
2019-01-29T03:59:10.144Z,17.80
2019-01-29T04:01:36.023Z,17.43
2019-01-29T04:04:01.969Z,17.50
2019-01-29T04:06:27.845Z,17.70
2019-01-29T04:08:53.761Z,17.30
2019-01-29T04:11:19.677Z,17.67
2019-01-29T04:13:45.554Z,17.87
2019-01-29T04:16:11.426Z,16.67
2019-01-29T04:18:37.314Z,17.13
2019-01-29T04:21:03.193Z,16.23
2019-01-29T04:23:29.173Z,17.00
2019-01-29T04:25:55.114Z,16.40
2019-01-29T04:28:21.036Z,16.33
2019-01-29T04:30:46.912Z,17.03
2019-01-29T04:33:12.794Z,17.13
2019-01-29T04:35:38.774Z,16.37
2019-01-29T04:38:04.758Z,15.73
2019-01-29T04:40:30.721Z,15.50
2019-01-29T04:42:56.671Z,16.13
2019-01-29T04:45:22.582Z,16.30
2019-01-29T04:47:48.458Z,15.77
2019-01-29T04:50:16.413Z,16.53
2019-01-29T04:52:42.268Z,15.35
2019-01-29T04:55:11.087Z,15.90
2019-01-29T04:57:36.960Z,15.13
2019-01-29T05:00:06.673Z,13.93
2019-01-29T05:02:32.552Z,14.68
2019-01-29T05:04:58.464Z,14.70
2019-01-29T05:07:24.401Z,14.83
2019-01-29T05:09:50.224Z,14.80
2019-01-29T05:12:16.368Z,14.53
2019-01-29T05:14:42.276Z,14.90
2019-01-29T05:17:08.150Z,14.73
2019-01-29T05:19:34.017Z,14.93
2019-01-29T05:21:59.900Z,14.87
2019-01-29T05:24:25.759Z,14.53
2019-01-29T05:26:51.679Z,14.73
2019-01-29T05:29:17.578Z,14.80
2019-01-29T05:31:43.469Z,14.30
2019-01-29T05:34:09.368Z,13.97
2019-01-29T05:36:35.237Z,12.77
2019-01-29T05:39:01.176Z,13.17
2019-01-29T05:41:27.049Z,13.10
2019-01-29T05:43:52.920Z,13.57
2019-01-29T05:46:18.863Z,12.90
2019-01-29T05:48:44.817Z,13.80
2019-01-29T05:51:10.804Z,14.03
2019-01-29T05:53:36.718Z,14.00
2019-01-29T05:56:02.786Z,14.03
2019-01-29T05:58:32.734Z,12.88
2019-01-29T06:00:58.626Z,13.22
2019-01-29T06:03:24.613Z,13.23
2019-01-29T06:05:50.638Z,14.13
2019-01-29T06:08:16.505Z,13.60
2019-01-29T06:10:42.386Z,13.07
2019-01-29T06:13:08.320Z,13.43
2019-01-29T06:15:34.208Z,14.30
2019-01-29T06:18:00.053Z,13.77
2019-01-29T06:20:28.195Z,13.50
2019-01-29T06:22:54.086Z,13.28
2019-01-29T06:25:19.984Z,13.20
2019-01-29T06:27:45.890Z,13.07
2019-01-29T06:30:14.188Z,12.40
2019-01-29T06:32:40.066Z,12.55
2019-01-29T06:35:11.555Z,12.00
2019-01-29T06:37:37.468Z,12.63
2019-01-29T06:40:07.168Z,13.23
2019-01-29T06:42:33.053Z,12.78
2019-01-29T06:44:59.004Z,13.03
2019-01-29T06:47:24.879Z,13.43
2019-01-29T06:49:50.793Z,12.83
2019-01-29T06:52:16.714Z,13.10
2019-01-29T06:54:42.621Z,12.90
2019-01-29T06:57:08.526Z,14.37
2019-01-29T06:59:34.456Z,12.27
2019-01-29T07:02:01.106Z,12.70
2019-01-29T07:04:26.982Z,13.45
2019-01-29T07:06:52.840Z,13.17
2019-01-29T07:09:18.715Z,13.50
2019-01-29T07:11:46.515Z,13.67
2019-01-29T07:14:12.540Z,13.22
2019-01-29T07:16:40.309Z,12.82
2019-01-29T07:19:08.237Z,12.73
2019-01-29T07:21:34.106Z,12.88
2019-01-29T07:23:59.960Z,13.37
2019-01-29T07:26:25.889Z,12.27
2019-01-29T07:28:51.769Z,12.43
2019-01-29T07:31:17.644Z,13.33
2019-01-29T07:33:43.523Z,13.67
2019-01-29T07:36:09.507Z,15.07
2019-01-29T07:38:35.432Z,13.50
2019-01-29T07:41:01.323Z,14.03
2019-01-29T07:43:27.173Z,13.13
2019-01-29T07:45:53.060Z,12.03
2019-01-29T07:48:18.922Z,12.03
2019-01-29T07:50:44.780Z,12.50
2019-01-29T07:53:10.920Z,12.07
2019-01-29T07:55:36.932Z,12.47
2019-01-29T07:58:02.958Z,12.27
2019-01-29T08:00:29.217Z,12.10
2019-01-29T08:02:55.339Z,12.13
2019-01-29T08:05:21.244Z,10.97
2019-01-29T08:07:47.133Z,11.37
2019-01-29T08:10:14.439Z,11.97
2019-01-29T08:12:40.362Z,11.30
2019-01-29T08:15:17.759Z,12.43
2019-01-29T08:17:43.739Z,12.77
2019-01-29T08:20:11.010Z,12.60
2019-01-29T08:22:36.917Z,12.90
2019-01-29T08:25:04.391Z,12.50
2019-01-29T08:27:30.337Z,11.63
2019-01-29T08:29:56.204Z,12.23
2019-01-29T08:32:22.073Z,12.57
2019-01-29T08:34:47.979Z,12.00
2019-01-29T08:37:13.953Z,12.63
2019-01-29T08:39:39.830Z,12.17
2019-01-29T08:42:05.681Z,14.10
2019-01-29T08:44:31.615Z,11.70
2019-01-29T08:46:57.503Z,11.87
2019-01-29T08:49:23.381Z,12.70
2019-01-29T08:51:49.268Z,12.30
2019-01-29T08:54:15.173Z,12.60
2019-01-29T08:56:41.105Z,12.57
2019-01-29T08:59:06.966Z,19.03
2019-01-29T09:01:36.396Z,13.10
2019-01-29T09:04:02.365Z,12.90
2019-01-29T09:06:28.219Z,12.57
2019-01-29T09:08:54.099Z,12.00
2019-01-29T09:11:20.002Z,12.30
2019-01-29T09:13:45.917Z,12.10
2019-01-29T09:16:11.812Z,12.07
2019-01-29T09:18:37.798Z,11.70
2019-01-29T09:21:03.831Z,11.30
2019-01-29T09:23:29.670Z,11.97
2019-01-29T09:25:55.534Z,11.60
2019-01-29T09:28:23.311Z,11.80
2019-01-29T09:30:49.276Z,11.70
2019-01-29T09:33:15.136Z,11.27
2019-01-29T09:35:41.010Z,14.87
2019-01-29T09:38:06.947Z,11.97
2019-01-29T09:40:32.828Z,11.60
2019-01-29T09:42:58.687Z,10.87
2019-01-29T09:45:24.590Z,11.20
2019-01-29T09:47:50.512Z,10.70
2019-01-29T09:50:23.425Z,11.87
2019-01-29T09:52:49.493Z,13.47
2019-01-29T09:55:17.323Z,10.80
2019-01-29T09:57:43.199Z,9.73
2019-01-29T10:00:30.290Z,9.67
2019-01-29T10:02:56.263Z,10.10
2019-01-29T10:05:22.433Z,8.90
2019-01-29T10:07:48.281Z,9.07
2019-01-29T10:10:14.167Z,8.93
2019-01-29T10:12:40.185Z,9.03
2019-01-29T10:15:09.925Z,11.33
2019-01-29T10:17:36.208Z,14.87
2019-01-29T10:20:04.178Z,15.77
2019-01-29T10:22:30.131Z,16.83
2019-01-29T10:24:56.018Z,17.93
2019-01-29T10:27:21.912Z,18.73
2019-01-29T10:29:47.807Z,18.53
2019-01-29T10:32:13.760Z,18.20
2019-01-29T10:34:39.645Z,17.57
2019-01-29T10:37:05.574Z,17.73
2019-01-29T10:39:31.616Z,18.20
2019-01-29T10:41:57.444Z,16.83
2019-01-29T10:44:23.365Z,16.13
2019-01-29T10:46:49.289Z,15.70
2019-01-29T10:49:15.293Z,16.10
2019-01-29T10:51:41.151Z,15.67
2019-01-29T10:54:07.054Z,15.30
2019-01-29T10:56:34.107Z,15.40
2019-01-29T10:59:00.388Z,14.60
2019-01-29T11:01:26.404Z,13.37
2019-01-29T11:03:52.325Z,13.23
2019-01-29T11:06:18.224Z,12.53
2019-01-29T11:08:44.129Z,11.23
2019-01-29T11:11:10.070Z,10.17
2019-01-29T11:13:35.977Z,9.87
2019-01-29T11:16:01.899Z,9.93
2019-01-29T11:18:27.810Z,10.83
2019-01-29T11:20:53.681Z,11.50
2019-01-29T11:23:19.704Z,12.63
2019-01-29T11:25:45.619Z,12.57
2019-01-29T11:28:11.536Z,13.50
2019-01-29T11:30:37.433Z,14.50
2019-01-29T11:33:03.618Z,15.03
2019-01-29T11:35:29.499Z,15.40
2019-01-29T11:37:55.379Z,16.77
2019-01-29T11:40:26.584Z,16.43
2019-01-29T11:42:52.587Z,16.03
2019-01-29T11:45:22.140Z,17.83
2019-01-29T11:47:48.042Z,17.77
2019-01-29T11:50:13.957Z,18.43
2019-01-29T11:52:39.800Z,19.83
2019-01-29T11:55:08.298Z,17.57
2019-01-29T11:57:34.222Z,19.17
2019-01-29T12:00:00.136Z,19.40
2019-01-29T12:02:28.467Z,18.20
2019-01-29T12:04:57.855Z,18.67
2019-01-29T12:07:23.791Z,16.87
2019-01-29T12:09:49.798Z,16.73
2019-01-29T12:12:15.773Z,17.67
2019-01-29T12:14:41.668Z,16.13
2019-01-29T12:17:07.790Z,16.17
2019-01-29T12:19:33.677Z,16.30
2019-01-29T12:21:59.652Z,15.73
2019-01-29T12:24:25.546Z,16.73
2019-01-29T12:26:51.398Z,15.90
2019-01-29T12:29:17.296Z,16.27
2019-01-29T12:31:43.274Z,16.60
2019-01-29T12:34:09.255Z,15.20
2019-01-29T12:36:35.215Z,14.53
2019-01-29T12:39:01.174Z,16.93
2019-01-29T12:41:27.058Z,16.27
2019-01-29T12:43:56.330Z,14.20
2019-01-29T12:46:22.332Z,14.77
2019-01-29T12:48:48.247Z,17.33
2019-01-29T12:51:16.054Z,18.30
2019-01-29T12:53:42.322Z,17.07
2019-01-29T12:56:08.181Z,19.60
2019-01-29T12:58:34.084Z,20.07
2019-01-29T13:01:00.177Z,17.90
2019-01-29T13:03:26.099Z,19.73
2019-01-29T13:05:53.063Z,17.90
2019-01-29T13:08:19.061Z,15.77
2019-01-29T13:10:44.949Z,16.93
2019-01-29T13:13:10.901Z,15.23
2019-01-29T13:15:36.759Z,16.43
2019-01-29T13:18:03.267Z,16.57
2019-01-29T13:20:29.358Z,17.20
2019-01-29T13:22:55.208Z,14.90
2019-01-29T13:25:21.084Z,15.20
2019-01-29T13:27:47.022Z,16.37
2019-01-29T13:30:16.711Z,17.33
2019-01-29T13:32:42.585Z,17.30
2019-01-29T13:35:09.325Z,15.70
2019-01-29T13:37:35.199Z,15.83
2019-01-29T13:40:02.333Z,16.10
2019-01-29T13:42:28.685Z,15.80
2019-01-29T13:44:54.583Z,16.47
2019-01-29T13:47:20.856Z,16.60
2019-01-29T13:49:46.792Z,16.00
2019-01-29T13:52:12.681Z,17.03
2019-01-29T13:54:38.547Z,15.63
2019-01-29T13:57:04.632Z,14.90
2019-01-29T13:59:30.529Z,15.70
2019-01-29T14:01:57.732Z,16.20
2019-01-29T14:04:23.897Z,15.37
2019-01-29T14:06:49.822Z,14.57
2019-01-29T14:09:15.673Z,11.90
2019-01-29T14:11:41.661Z,12.53
2019-01-29T14:14:07.518Z,14.23
2019-01-29T14:16:33.397Z,13.67
2019-01-29T14:18:59.312Z,15.30
2019-01-29T14:21:25.174Z,15.33
2019-01-29T14:23:51.128Z,14.73
2019-01-29T14:26:17.038Z,14.00
2019-01-29T14:28:42.923Z,14.20
2019-01-29T14:31:08.800Z,15.63
2019-01-29T14:33:34.663Z,14.97
2019-01-29T14:36:00.569Z,14.00
2019-01-29T14:38:30.561Z,14.50
2019-01-29T14:40:56.544Z,13.43
2019-01-29T14:43:25.947Z,14.53
2019-01-29T14:45:51.802Z,13.93
2019-01-29T14:48:17.700Z,14.03
2019-01-29T14:50:43.601Z,15.77
2019-01-29T14:53:09.463Z,15.03
2019-01-29T14:55:35.365Z,15.90
2019-01-29T14:58:01.233Z,16.40
2019-01-29T15:00:30.122Z,16.87
2019-01-29T15:02:58.334Z,16.43
2019-01-29T15:05:25.399Z,17.30
2019-01-29T15:07:55.297Z,16.73
2019-01-29T15:10:26.062Z,17.63
2019-01-29T15:12:52.165Z,18.30
2019-01-29T15:15:20.427Z,17.27
2019-01-29T15:17:48.352Z,16.27
2019-01-29T15:20:14.214Z,16.33
2019-01-29T15:22:40.085Z,16.10
2019-01-29T15:25:09.824Z,15.77
2019-01-29T15:27:35.707Z,15.30
2019-01-29T15:30:01.615Z,15.67
2019-01-29T15:32:27.482Z,15.47
2019-01-29T15:34:53.386Z,15.33
2019-01-29T15:37:19.281Z,15.30
2019-01-29T15:39:45.181Z,15.50
2019-01-29T15:42:11.049Z,15.13
2019-01-29T15:44:36.936Z,16.33
2019-01-29T15:47:02.999Z,15.30
2019-01-29T15:49:28.932Z,16.67
2019-01-29T15:51:54.797Z,16.57
2019-01-29T15:54:20.921Z,17.03
2019-01-29T15:56:46.931Z,17.17
2019-01-29T15:59:12.755Z,17.43
2019-01-29T16:01:38.872Z,18.23
2019-01-29T16:04:04.710Z,18.57
2019-01-29T16:06:30.823Z,19.17
2019-01-29T16:08:56.761Z,18.97
2019-01-29T16:11:22.775Z,19.20
2019-01-29T16:13:48.698Z,20.77
2019-01-29T16:16:15.878Z,20.33
2019-01-29T16:18:41.779Z,21.13
2019-01-29T16:21:07.690Z,19.63
2019-01-29T16:23:33.581Z,21.23
2019-01-29T16:25:59.458Z,22.57
2019-01-29T16:28:25.471Z,22.20
2019-01-29T16:30:51.382Z,21.17
2019-01-29T16:33:17.410Z,21.20
2019-01-29T16:35:43.309Z,20.63
2019-01-29T16:38:09.318Z,21.90
2019-01-29T16:40:37.392Z,21.20
2019-01-29T16:43:03.259Z,19.87
2019-01-29T16:45:31.083Z,19.53
2019-01-29T16:47:58.964Z,18.03
2019-01-29T16:50:25.159Z,17.90
2019-01-29T16:52:51.518Z,18.07
2019-01-29T16:55:18.680Z,16.67
2019-01-29T16:57:44.600Z,18.00
2019-01-29T17:00:25.421Z,15.50
2019-01-29T17:02:51.431Z,16.20
2019-01-29T17:05:17.331Z,15.97
2019-01-29T17:07:43.203Z,16.20
2019-01-29T17:10:12.484Z,16.47
2019-01-29T17:12:38.373Z,17.07
2019-01-29T17:15:08.054Z,17.70
2019-01-29T17:17:33.933Z,17.30
2019-01-29T17:19:59.896Z,17.07
2019-01-29T17:22:25.781Z,16.70
2019-01-29T17:24:51.645Z,16.70
2019-01-29T17:27:17.604Z,17.17
2019-01-29T17:29:43.489Z,17.77
2019-01-29T17:32:09.345Z,18.40
2019-01-29T17:34:35.292Z,19.33
2019-01-29T17:37:01.174Z,20.33
2019-01-29T17:39:27.143Z,20.07
2019-01-29T17:41:53.037Z,20.77
2019-01-29T17:44:18.969Z,21.57
2019-01-29T17:46:44.850Z,21.33
2019-01-29T17:49:10.887Z,21.40
2019-01-29T17:51:36.780Z,21.60
2019-01-29T17:54:02.764Z,21.67
2019-01-29T17:56:28.703Z,22.40
2019-01-29T17:58:54.584Z,29.30
2019-01-29T18:01:20.705Z,23.20
2019-01-29T18:03:46.583Z,22.43
2019-01-29T18:06:12.460Z,20.83
2019-01-29T18:08:38.361Z,22.67
2019-01-29T18:11:04.231Z,21.07
2019-01-29T18:13:30.114Z,20.63
2019-01-29T18:15:55.989Z,57.90
2019-01-29T18:18:21.933Z,21.07
2019-01-29T18:20:48.029Z,20.33
2019-01-29T18:23:14.040Z,20.60
2019-01-29T18:25:40.042Z,21.67
2019-01-29T18:28:08.428Z,21.53
2019-01-29T18:30:34.564Z,22.33
2019-01-29T18:33:00.497Z,21.23
2019-01-29T18:35:26.379Z,20.00
2019-01-29T18:37:52.262Z,20.27
2019-01-29T18:40:21.589Z,19.43
2019-01-29T18:42:47.733Z,19.60
2019-01-29T18:45:13.767Z,19.50
2019-01-29T18:47:39.584Z,18.97
2019-01-29T18:50:15.096Z,19.27
2019-01-29T18:52:41.179Z,19.43
2019-01-29T18:55:08.593Z,22.23
2019-01-29T18:57:34.547Z,18.60
2019-01-29T19:00:00.631Z,17.57
2019-01-29T19:02:26.522Z,18.00
2019-01-29T19:04:52.529Z,16.43
2019-01-29T19:07:18.485Z,15.83
2019-01-29T19:09:47.858Z,15.67
2019-01-29T19:12:13.844Z,13.70
2019-01-29T19:14:39.834Z,14.53
2019-01-29T19:17:05.814Z,14.07
2019-01-29T19:19:31.690Z,16.23
2019-01-29T19:21:57.578Z,14.33
2019-01-29T19:24:23.443Z,13.57
2019-01-29T19:26:49.533Z,15.77
2019-01-29T19:29:15.481Z,14.77
2019-01-29T19:31:41.323Z,14.10
2019-01-29T19:34:07.281Z,14.03
2019-01-29T19:36:33.170Z,13.63
2019-01-29T19:38:59.205Z,14.47
2019-01-29T19:41:25.128Z,15.27
2019-01-29T19:43:51.084Z,14.73
2019-01-29T19:46:17.097Z,14.87
2019-01-29T19:48:43.149Z,15.50
2019-01-29T19:51:09.021Z,16.57
2019-01-29T19:53:34.944Z,15.37
2019-01-29T19:56:00.835Z,16.63
2019-01-29T19:58:32.356Z,17.83
2019-01-29T20:00:54.597Z,16.60
2019-01-29T20:03:20.583Z,17.40
2019-01-29T20:05:46.464Z,16.70
2019-01-29T20:08:12.450Z,17.47
2019-01-29T20:10:39.432Z,16.93
2019-01-29T20:13:05.656Z,16.87
2019-01-29T20:15:31.895Z,16.00
2019-01-29T20:17:58.123Z,16.77
2019-01-29T20:20:27.646Z,15.60
2019-01-29T20:22:54.336Z,15.93
2019-01-29T20:25:22.679Z,16.03
2019-01-29T20:27:49.825Z,15.90
2019-01-29T20:30:20.107Z,16.20
2019-01-29T20:32:53.526Z,16.87
2019-01-29T20:35:17.233Z,17.03
2019-01-29T20:37:44.493Z,17.70
2019-01-29T20:40:13.939Z,18.93
2019-01-29T20:42:41.128Z,17.33
2019-01-29T20:45:09.899Z,16.47
2019-01-29T20:47:37.155Z,16.43
2019-01-29T20:50:07.841Z,17.23
2019-01-29T20:52:35.178Z,18.60
2019-01-29T20:55:02.386Z,17.67
2019-01-29T20:57:29.531Z,17.70
2019-01-29T20:59:56.495Z,18.37
2019-01-29T21:02:23.047Z,18.47
2019-01-29T21:04:49.489Z,18.57
2019-01-29T21:07:15.884Z,18.47
2019-01-29T21:09:42.064Z,18.93
2019-01-29T21:12:08.130Z,18.00
2019-01-29T21:14:34.021Z,17.90
2019-01-29T21:16:59.953Z,18.27
2019-01-29T21:19:25.839Z,18.27
2019-01-29T21:21:51.706Z,17.30
2019-01-29T21:24:17.571Z,17.83
2019-01-29T21:26:43.490Z,16.73
2019-01-29T21:29:09.495Z,17.77
2019-01-29T21:31:35.384Z,17.33
2019-01-29T21:34:01.282Z,16.97
2019-01-29T21:36:27.149Z,16.93
2019-01-29T21:38:53.025Z,16.87
2019-01-29T21:41:18.931Z,15.60
2019-01-29T21:43:44.831Z,15.80
2019-01-29T21:46:10.782Z,16.87
2019-01-29T21:48:36.698Z,16.47
2019-01-29T21:51:02.556Z,16.50
2019-01-29T21:53:28.501Z,16.07
2019-01-29T21:55:54.383Z,14.63
2019-01-29T21:58:20.445Z,14.20
2019-01-29T22:00:46.415Z,14.07
2019-01-29T22:03:13.108Z,14.43
2019-01-29T22:05:39.022Z,13.57
2019-01-29T22:08:05.810Z,14.03
2019-01-29T22:10:31.757Z,13.87
2019-01-29T22:13:01.129Z,13.57
2019-01-29T22:15:27.013Z,12.80
2019-01-29T22:17:52.915Z,13.33
2019-01-29T22:20:20.326Z,12.57
2019-01-29T22:22:46.387Z,12.27
2019-01-29T22:25:16.057Z,11.67
2019-01-29T22:27:41.937Z,10.57
2019-01-29T22:30:11.777Z,12.27
2019-01-29T22:32:37.963Z,9.53
2019-01-29T22:35:04.394Z,10.07
2019-01-29T22:37:30.375Z,8.93
2019-01-29T22:39:56.273Z,9.03
2019-01-29T22:42:22.452Z,7.97
2019-01-29T22:44:48.479Z,7.70
2019-01-29T22:47:14.404Z,7.23
2019-01-29T22:49:40.399Z,6.47
2019-01-29T22:52:06.338Z,6.77
2019-01-29T22:54:32.171Z,6.80
2019-01-29T22:56:58.052Z,6.23
2019-01-29T22:59:32.938Z,6.37
2019-01-29T23:01:51.852Z,5.37
2019-01-29T23:04:17.788Z,5.57
2019-01-29T23:06:48.929Z,5.67
2019-01-29T23:09:14.911Z,5.67
2019-01-29T23:11:40.759Z,5.43
2019-01-29T23:14:07.167Z,5.40
2019-01-29T23:16:33.070Z,5.00
2019-01-29T23:18:58.959Z,5.00
2019-01-29T23:21:24.900Z,5.27
2019-01-29T23:23:50.763Z,5.10
2019-01-29T23:26:16.628Z,5.17
2019-01-29T23:28:42.536Z,5.33
2019-01-29T23:31:08.429Z,4.77
2019-01-29T23:33:34.334Z,4.90
2019-01-29T23:36:00.326Z,5.20
2019-01-29T23:38:26.263Z,4.70
2019-01-29T23:40:52.134Z,4.70
2019-01-29T23:43:18.072Z,5.27
2019-01-29T23:45:44.043Z,4.57
2019-01-29T23:48:09.917Z,4.50
2019-01-29T23:50:35.869Z,4.13
2019-01-29T23:53:01.817Z,4.40
2019-01-29T23:55:27.691Z,4.23
2019-01-29T23:57:53.593Z,4.07
